createdAt,value
2018-09-23T00:02:59.670Z,100.00
2018-09-23T00:06:04.072Z,100.00
2018-09-23T00:09:09.052Z,100.00
2018-09-23T00:12:13.590Z,100.00
2018-09-23T00:15:17.862Z,100.00
2018-09-23T00:18:22.180Z,100.00
2018-09-23T00:21:26.505Z,100.00
2018-09-23T00:24:30.805Z,100.00
2018-09-23T00:27:35.134Z,100.00
2018-09-23T00:30:39.456Z,100.00
2018-09-23T00:33:43.920Z,100.00
2018-09-23T00:36:48.328Z,100.00
2018-09-23T00:39:52.766Z,100.00
2018-09-23T00:42:57.100Z,100.00
2018-09-23T00:46:01.356Z,100.00
2018-09-23T00:49:05.630Z,100.00
2018-09-23T00:52:09.901Z,100.00
2018-09-23T00:55:14.233Z,100.00
2018-09-23T00:58:18.546Z,100.00
2018-09-23T01:01:22.938Z,100.00
2018-09-23T01:04:27.186Z,100.00
2018-09-23T01:07:31.542Z,100.00
2018-09-23T01:10:36.843Z,100.00
2018-09-23T01:13:41.352Z,100.00
2018-09-23T01:16:45.618Z,100.00
2018-09-23T01:19:49.891Z,100.00
2018-09-23T01:22:54.295Z,100.00
2018-09-23T01:25:58.597Z,100.00
2018-09-23T01:29:02.884Z,100.00
2018-09-23T01:32:07.258Z,100.00
2018-09-23T01:35:11.505Z,100.00
2018-09-23T01:38:15.790Z,100.00
2018-09-23T01:41:20.185Z,100.00
2018-09-23T01:44:24.512Z,100.00
2018-09-23T01:47:28.832Z,100.00
2018-09-23T01:50:33.253Z,100.00
2018-09-23T01:53:37.818Z,100.00
2018-09-23T01:56:42.345Z,100.00
2018-09-23T01:59:46.585Z,100.00
2018-09-23T02:02:51.051Z,100.00
2018-09-23T02:05:55.394Z,100.00
2018-09-23T02:08:59.673Z,100.00
2018-09-23T02:12:04.007Z,100.00
2018-09-23T02:15:08.269Z,100.00
2018-09-23T02:18:12.553Z,100.00
2018-09-23T02:21:16.970Z,100.00
2018-09-23T02:24:21.200Z,100.00
2018-09-23T02:27:25.504Z,100.00
2018-09-23T02:30:29.793Z,100.00
2018-09-23T02:33:34.025Z,100.00
2018-09-23T02:36:38.297Z,100.00
2018-09-23T02:39:42.606Z,100.00
2018-09-23T02:42:46.919Z,100.00
2018-09-23T02:45:51.289Z,100.00
2018-09-23T02:48:55.564Z,100.00
2018-09-23T02:51:59.897Z,100.00
2018-09-23T02:55:04.158Z,100.00
2018-09-23T02:58:08.424Z,100.00
2018-09-23T03:01:12.684Z,100.00
2018-09-23T03:04:16.967Z,100.00
2018-09-23T03:07:21.192Z,100.00
2018-09-23T03:10:25.768Z,100.00
2018-09-23T03:13:30.005Z,100.00
2018-09-23T03:16:34.261Z,100.00
2018-09-23T03:19:38.561Z,100.00
2018-09-23T03:22:42.909Z,100.00
2018-09-23T03:25:47.236Z,100.00
2018-09-23T03:28:51.495Z,100.00
2018-09-23T03:31:55.897Z,100.00
2018-09-23T03:35:00.186Z,100.00
2018-09-23T03:38:04.673Z,100.00
2018-09-23T03:41:09.037Z,100.00
2018-09-23T03:44:13.357Z,100.00
2018-09-23T03:47:17.663Z,100.00
2018-09-23T03:50:21.991Z,100.00
2018-09-23T03:53:26.328Z,100.00
2018-09-23T03:56:30.645Z,100.00
2018-09-23T03:59:34.969Z,100.00
2018-09-23T04:02:39.287Z,100.00
2018-09-23T04:05:43.604Z,100.00
2018-09-23T04:08:47.866Z,100.00
2018-09-23T04:11:52.161Z,100.00
2018-09-23T04:14:56.473Z,100.00
2018-09-23T04:18:00.796Z,100.00
2018-09-23T04:21:05.149Z,100.00
2018-09-23T04:24:09.384Z,100.00
2018-09-23T04:27:13.630Z,100.00
2018-09-23T04:30:19.159Z,100.00
2018-09-23T04:33:23.425Z,100.00
2018-09-23T04:36:27.628Z,100.00
2018-09-23T04:39:31.967Z,100.00
2018-09-23T04:42:36.319Z,100.00
2018-09-23T04:45:40.596Z,100.00
2018-09-23T04:48:44.921Z,100.00
2018-09-23T04:51:49.769Z,100.00
2018-09-23T04:54:54.092Z,100.00
2018-09-23T04:57:58.403Z,100.00
2018-09-23T05:01:02.625Z,100.00
2018-09-23T05:04:06.947Z,100.00
2018-09-23T05:07:11.278Z,100.00
2018-09-23T05:10:15.852Z,100.00
2018-09-23T05:13:20.127Z,100.00
2018-09-23T05:16:24.459Z,100.00
2018-09-23T05:19:28.752Z,100.00
2018-09-23T05:22:33.085Z,100.00
2018-09-23T05:25:37.426Z,100.00
2018-09-23T05:28:41.729Z,100.00
2018-09-23T05:31:46.282Z,100.00
2018-09-23T05:34:50.575Z,100.00
2018-09-23T05:37:54.891Z,100.00
2018-09-23T05:40:59.268Z,100.00
2018-09-23T05:44:03.583Z,100.00
2018-09-23T05:47:07.882Z,100.00
2018-09-23T05:50:12.179Z,100.00
2018-09-23T05:53:16.570Z,100.00
2018-09-23T05:56:20.823Z,100.00
2018-09-23T05:59:25.147Z,100.00
2018-09-23T06:02:29.749Z,100.00
2018-09-23T06:05:34.260Z,100.00
2018-09-23T06:08:38.654Z,100.00
2018-09-23T06:11:43.117Z,100.00
2018-09-23T06:14:47.589Z,100.00
2018-09-23T06:17:51.898Z,100.00
2018-09-23T06:20:56.222Z,100.00
2018-09-23T06:24:00.744Z,100.00
2018-09-23T06:27:05.084Z,100.00
2018-09-23T06:30:09.632Z,100.00
2018-09-23T06:33:13.988Z,100.00
2018-09-23T06:36:18.273Z,100.00
2018-09-23T06:39:22.645Z,100.00
2018-09-23T06:42:27.042Z,100.00
2018-09-23T06:45:31.341Z,100.00
2018-09-23T06:48:35.643Z,100.00
2018-09-23T06:51:40.110Z,100.00
2018-09-23T06:54:44.489Z,100.00
2018-09-23T06:57:48.794Z,100.00
2018-09-23T07:00:53.157Z,100.00
2018-09-23T07:03:57.654Z,100.00
2018-09-23T07:07:01.967Z,100.00
2018-09-23T07:10:06.764Z,100.00
2018-09-23T07:13:11.251Z,100.00
2018-09-23T07:16:15.553Z,100.00
2018-09-23T07:19:19.933Z,100.00
2018-09-23T07:22:24.394Z,100.00
2018-09-23T07:25:28.685Z,100.00
2018-09-23T07:28:33.039Z,100.00
2018-09-23T07:31:37.357Z,100.00
2018-09-23T07:34:41.695Z,100.00
2018-09-23T07:37:46.052Z,100.00
2018-09-23T07:40:50.329Z,100.00
2018-09-23T07:43:54.660Z,100.00
2018-09-23T07:46:58.940Z,99.68
2018-09-23T07:50:03.318Z,100.00
2018-09-23T07:53:07.635Z,100.00
2018-09-23T07:56:11.982Z,100.00
2018-09-23T07:59:16.270Z,100.00
2018-09-23T08:02:20.541Z,100.00
2018-09-23T08:05:24.899Z,100.00
2018-09-23T08:08:29.176Z,100.00
2018-09-23T08:11:33.440Z,100.00
2018-09-23T08:14:38.088Z,100.00
2018-09-23T08:17:42.088Z,100.00
2018-09-23T08:20:46.373Z,100.00
2018-09-23T08:23:50.720Z,100.00
2018-09-23T08:26:55.020Z,100.00
2018-09-23T08:29:59.375Z,99.93
2018-09-23T08:33:03.748Z,98.91
2018-09-23T08:36:08.140Z,97.69
2018-09-23T08:39:12.420Z,94.36
2018-09-23T08:42:16.689Z,93.21
2018-09-23T08:45:20.981Z,92.98
2018-09-23T08:48:25.369Z,93.20
2018-09-23T08:51:29.634Z,94.37
2018-09-23T08:54:33.983Z,93.82
2018-09-23T08:57:38.323Z,93.52
2018-09-23T09:00:42.688Z,93.21
2018-09-23T09:03:47.062Z,90.62
2018-09-23T09:06:51.977Z,93.38
2018-09-23T09:09:56.389Z,91.68
2018-09-23T09:13:00.792Z,91.70
2018-09-23T09:16:05.130Z,91.69
2018-09-23T09:19:09.453Z,88.02
2018-09-23T09:22:13.765Z,88.77
2018-09-23T09:25:18.077Z,87.57
2018-09-23T09:28:22.334Z,88.25
2018-09-23T09:31:26.683Z,89.31
2018-09-23T09:34:30.961Z,87.84
2018-09-23T09:37:35.271Z,86.63
2018-09-23T09:40:39.586Z,86.65
2018-09-23T09:43:43.922Z,87.32
2018-09-23T09:46:48.325Z,86.61
2018-09-23T09:49:52.667Z,87.42
2018-09-23T09:52:56.968Z,86.98
2018-09-23T09:56:01.313Z,86.11
2018-09-23T09:59:05.633Z,85.26
2018-09-23T10:02:09.911Z,85.49
2018-09-23T10:05:14.292Z,84.49
2018-09-23T10:08:18.557Z,81.78
2018-09-23T10:11:22.995Z,80.71
2018-09-23T10:14:27.349Z,81.21
2018-09-23T10:17:31.654Z,81.62
2018-09-23T10:20:36.111Z,80.75
2018-09-23T10:23:40.780Z,80.15
2018-09-23T10:26:44.711Z,81.64
2018-09-23T10:29:49.105Z,81.46
2018-09-23T10:32:54.323Z,80.40
2018-09-23T10:35:58.632Z,82.50
2018-09-23T10:39:02.962Z,83.03
2018-09-23T10:42:07.261Z,83.60
2018-09-23T10:45:11.554Z,84.00
2018-09-23T10:48:15.916Z,82.98
2018-09-23T10:51:21.263Z,84.37
2018-09-23T10:54:25.552Z,84.52
2018-09-23T10:57:29.916Z,84.12
2018-09-23T11:00:34.215Z,84.10
2018-09-23T11:03:38.603Z,84.12
2018-09-23T11:06:42.854Z,83.35
2018-09-23T11:09:47.239Z,79.73
2018-09-23T11:12:51.522Z,79.16
2018-09-23T11:15:55.820Z,77.94
2018-09-23T11:19:00.143Z,79.13
2018-09-23T11:22:04.483Z,77.11
2018-09-23T11:25:08.830Z,77.93
2018-09-23T11:28:13.233Z,78.86
2018-09-23T11:31:17.554Z,78.69
2018-09-23T11:34:21.940Z,78.09
2018-09-23T11:37:26.265Z,78.13
2018-09-23T11:40:30.605Z,77.50
2018-09-23T11:43:34.910Z,77.22
2018-09-23T11:46:39.502Z,78.40
2018-09-23T11:49:43.825Z,77.55
2018-09-23T11:52:48.109Z,79.24
2018-09-23T11:55:52.517Z,78.08
2018-09-23T11:58:56.969Z,79.44
2018-09-23T12:02:03.078Z,79.69
2018-09-23T12:05:07.418Z,78.60
2018-09-23T12:08:11.766Z,78.92
2018-09-23T12:11:16.154Z,78.90
2018-09-23T12:14:21.264Z,80.30
2018-09-23T12:17:25.617Z,80.71
2018-09-23T12:20:29.967Z,77.33
2018-09-23T12:23:34.272Z,78.55
2018-09-23T12:26:38.586Z,78.90
2018-09-23T12:29:43.034Z,79.53
2018-09-23T12:32:47.245Z,78.51
2018-09-23T12:35:51.580Z,78.20
2018-09-23T12:38:55.877Z,79.26
2018-09-23T12:42:01.699Z,79.78
2018-09-23T12:45:06.060Z,79.80
2018-09-23T12:48:10.368Z,79.97
2018-09-23T12:51:14.705Z,81.66
2018-09-23T12:54:19.084Z,81.50
2018-09-23T12:57:23.355Z,81.27
2018-09-23T13:00:27.665Z,80.93
2018-09-23T13:03:32.013Z,78.88
2018-09-23T13:06:36.306Z,81.10
2018-09-23T13:09:40.684Z,80.97
2018-09-23T13:12:45.010Z,80.01
2018-09-23T13:15:49.318Z,77.86
2018-09-23T13:18:53.720Z,77.09
2018-09-23T13:21:58.050Z,76.55
2018-09-23T13:25:02.468Z,76.39
2018-09-23T13:28:07.177Z,76.02
2018-09-23T13:31:11.690Z,74.41
2018-09-23T13:34:16.041Z,74.85
2018-09-23T13:37:20.302Z,74.61
2018-09-23T13:40:24.673Z,74.31
2018-09-23T13:43:28.987Z,74.44
2018-09-23T13:46:33.382Z,74.89
2018-09-23T13:49:37.641Z,76.21
2018-09-23T13:52:41.914Z,76.11
2018-09-23T13:55:46.289Z,76.63
2018-09-23T13:58:50.603Z,75.15
2018-09-23T14:01:54.892Z,75.92
2018-09-23T14:04:59.263Z,75.95
2018-09-23T14:08:03.599Z,75.70
2018-09-23T14:11:08.010Z,76.76
2018-09-23T14:14:12.309Z,76.87
2018-09-23T14:17:16.650Z,77.69
2018-09-23T14:20:20.949Z,77.38
2018-09-23T14:23:25.209Z,76.67
2018-09-23T14:26:29.629Z,75.93
2018-09-23T14:29:34.091Z,76.41
2018-09-23T14:32:38.423Z,77.97
2018-09-23T14:35:42.775Z,78.43
2018-09-23T14:38:47.112Z,77.76
2018-09-23T14:41:51.419Z,78.31
2018-09-23T14:44:55.848Z,78.08
2018-09-23T14:48:00.148Z,78.32
2018-09-23T14:51:04.429Z,76.79
2018-09-23T14:54:08.829Z,76.94
2018-09-23T14:57:13.154Z,77.46
2018-09-23T15:00:17.594Z,77.44
2018-09-23T15:03:21.987Z,78.28
2018-09-23T15:06:26.503Z,77.90
2018-09-23T15:09:30.767Z,78.96
2018-09-23T15:12:35.054Z,79.19
2018-09-23T15:15:39.469Z,80.00
2018-09-23T15:18:43.837Z,79.21
2018-09-23T15:21:48.315Z,79.46
2018-09-23T15:24:52.690Z,79.40
2018-09-23T15:27:57.032Z,79.01
2018-09-23T15:31:01.399Z,79.63
2018-09-23T15:34:05.675Z,79.40
2018-09-23T15:37:10.156Z,79.24
2018-09-23T15:40:14.789Z,79.77
2018-09-23T15:43:19.333Z,80.22
2018-09-23T15:46:23.939Z,80.70
2018-09-23T15:49:28.356Z,80.25
2018-09-23T15:52:32.663Z,80.32
2018-09-23T15:55:37.098Z,80.09
2018-09-23T15:58:41.465Z,80.31
2018-09-23T16:01:45.875Z,79.96
2018-09-23T16:04:51.123Z,79.45
2018-09-23T16:07:55.582Z,79.40
2018-09-23T16:10:59.896Z,79.53
2018-09-23T16:14:04.347Z,79.56
2018-09-23T16:17:08.793Z,80.81
2018-09-23T16:20:13.216Z,80.74
2018-09-23T16:23:17.667Z,81.01
2018-09-23T16:26:22.057Z,81.52
2018-09-23T16:29:26.535Z,83.07
2018-09-23T16:32:30.905Z,82.55
2018-09-23T16:35:35.372Z,83.08
2018-09-23T16:38:39.789Z,82.66
2018-09-23T16:41:44.281Z,82.46
2018-09-23T16:44:48.716Z,83.20
2018-09-23T16:47:53.154Z,83.63
2018-09-23T16:50:57.584Z,83.00
2018-09-23T16:54:02.007Z,84.00
2018-09-23T16:57:06.528Z,83.15
2018-09-23T17:00:11.004Z,82.91
2018-09-23T17:03:15.618Z,82.87
2018-09-23T17:06:20.365Z,83.05
2018-09-23T17:09:24.837Z,84.39
2018-09-23T17:12:30.696Z,84.03
2018-09-23T17:15:35.296Z,85.13
2018-09-23T17:18:39.874Z,85.29
2018-09-23T17:21:44.650Z,86.00
2018-09-23T17:24:49.389Z,86.83
2018-09-23T17:27:55.489Z,87.18
2018-09-23T17:31:00.026Z,87.15
2018-09-23T17:34:04.828Z,87.27
2018-09-23T17:37:09.544Z,87.88
2018-09-23T17:40:14.229Z,88.58
2018-09-23T17:43:19.121Z,89.49
2018-09-23T17:46:23.787Z,89.78
2018-09-23T17:49:28.764Z,90.55
2018-09-23T17:52:33.910Z,90.70
2018-09-23T17:55:39.098Z,91.28
2018-09-23T17:58:44.004Z,91.71
2018-09-23T18:01:49.654Z,92.56
2018-09-23T18:04:54.414Z,92.84
2018-09-23T18:07:59.434Z,93.51
2018-09-23T18:11:04.255Z,93.02
2018-09-23T18:14:09.406Z,93.05
2018-09-23T18:17:14.307Z,93.01
2018-09-23T18:20:19.247Z,93.00
2018-09-23T18:23:24.177Z,92.01
2018-09-23T18:26:29.121Z,92.48
2018-09-23T18:29:34.170Z,92.58
2018-09-23T18:32:39.317Z,92.85
2018-09-23T18:35:44.278Z,93.31
2018-09-23T18:38:49.857Z,93.95
2018-09-23T18:44:26.184Z,94.34
2018-09-23T18:47:32.934Z,94.51
2018-09-23T18:50:37.766Z,94.89
2018-09-23T18:53:46.724Z,95.18
2018-09-23T18:56:51.753Z,95.51
2018-09-23T18:59:56.656Z,96.19
2018-09-23T19:03:01.593Z,95.75
2018-09-23T19:06:06.592Z,96.46
2018-09-23T19:09:11.459Z,96.69
2018-09-23T19:12:16.325Z,97.04
2018-09-23T19:15:22.478Z,97.15
2018-09-23T19:18:28.108Z,97.66
2018-09-23T19:21:33.045Z,97.41
2018-09-23T19:24:37.923Z,97.73
2018-09-23T19:27:42.957Z,98.01
2018-09-23T19:30:47.829Z,98.00
2018-09-23T19:33:53.363Z,97.44
2018-09-23T19:36:58.233Z,97.21
2018-09-23T19:40:03.871Z,97.72
2018-09-23T19:43:10.605Z,97.78
2018-09-23T19:46:15.510Z,97.35
2018-09-23T19:49:20.455Z,97.70
2018-09-23T19:52:25.347Z,96.97
2018-09-23T19:55:30.498Z,96.83
2018-09-23T19:58:35.338Z,97.49
2018-09-23T20:01:40.183Z,96.63
2018-09-23T20:04:45.688Z,96.31
2018-09-23T20:07:50.706Z,95.80
2018-09-23T20:10:56.074Z,95.81
2018-09-23T20:14:00.856Z,95.42
2018-09-23T20:17:05.741Z,94.86
2018-09-23T20:20:10.332Z,95.10
2018-09-23T20:23:14.992Z,95.42
2018-09-23T20:26:19.578Z,95.49
2018-09-23T20:29:24.078Z,95.88
2018-09-23T20:32:28.635Z,95.80
2018-09-23T20:35:33.114Z,95.78
2018-09-23T20:38:37.542Z,95.86
2018-09-23T20:41:41.929Z,96.20
2018-09-23T20:44:46.367Z,96.62
2018-09-23T20:47:50.745Z,96.20
2018-09-23T20:50:55.103Z,95.68
2018-09-23T20:54:00.269Z,96.09
2018-09-23T20:57:04.563Z,95.75
2018-09-23T21:00:09.005Z,96.34
2018-09-23T21:03:13.453Z,95.27
2018-09-23T21:06:17.825Z,95.44
2018-09-23T21:09:22.144Z,95.70
2018-09-23T21:12:26.460Z,95.23
2018-09-23T21:15:30.763Z,95.38
2018-09-23T21:18:35.057Z,94.67
2018-09-23T21:21:39.425Z,94.61
2018-09-23T21:24:43.746Z,94.44
2018-09-23T21:27:48.083Z,95.07
2018-09-23T21:30:52.387Z,94.84
2018-09-23T21:33:56.735Z,94.73
2018-09-23T21:37:01.032Z,95.11
2018-09-23T21:40:05.348Z,95.64
2018-09-23T21:43:10.649Z,95.96
2018-09-23T21:46:15.020Z,96.73
2018-09-23T21:49:19.344Z,96.32
2018-09-23T21:52:23.638Z,96.67
2018-09-23T21:55:27.977Z,96.23
2018-09-23T21:58:32.342Z,96.74
2018-09-23T22:01:36.720Z,96.70
2018-09-23T22:04:41.093Z,96.51
2018-09-23T22:07:45.419Z,96.77
2018-09-23T22:10:49.698Z,96.62
2018-09-23T22:13:53.985Z,97.42
2018-09-23T22:16:58.341Z,96.62
2018-09-23T22:20:02.573Z,96.75
2018-09-23T22:23:06.885Z,96.15
2018-09-23T22:26:11.117Z,95.82
2018-09-23T22:29:15.645Z,95.77
2018-09-23T22:32:19.979Z,95.64
2018-09-23T22:35:24.268Z,95.32
2018-09-23T22:38:28.595Z,95.93
2018-09-23T22:41:32.907Z,95.60
2018-09-23T22:44:37.230Z,95.75
2018-09-23T22:47:41.571Z,96.36
2018-09-23T22:50:45.897Z,95.84
2018-09-23T22:53:50.433Z,95.34
2018-09-23T22:56:54.728Z,94.97
2018-09-23T22:59:59.050Z,94.75
2018-09-23T23:03:03.377Z,94.30
2018-09-23T23:06:07.725Z,94.77
2018-09-23T23:09:12.042Z,93.23
2018-09-23T23:12:16.360Z,93.37
2018-09-23T23:15:20.662Z,93.26
2018-09-23T23:18:25.387Z,94.48
2018-09-23T23:21:29.745Z,93.88
2018-09-23T23:24:34.182Z,95.08
2018-09-23T23:27:38.459Z,95.08
2018-09-23T23:30:42.773Z,95.51
2018-09-23T23:33:47.022Z,95.87
2018-09-23T23:36:51.313Z,95.62
2018-09-23T23:39:55.630Z,94.35
2018-09-23T23:42:59.998Z,92.30
2018-09-23T23:46:09.637Z,90.72
2018-09-23T23:49:13.921Z,90.80
2018-09-23T23:52:20.041Z,90.83
2018-09-23T23:55:24.408Z,90.23
2018-09-23T23:58:34.473Z,90.48
